Time;durP1;ratioP1;P1;durP2;ratioP2;P2;SDS_P1;SDS_P2;PMS_P1;PMS_P2;Temp;Humidity;BMP_temperature;BMP_pressure;BME280_temperature;BME280_humidity;BME280_pressure;Samples;Min_cycle;Max_cycle;Signal;HPM_P1;HPM_P2
2022/01/22 00:01:57;;;;;;;14.50;12.30;;;8.10;99.90;;;;;;5032752;28;20417;-69
2022/01/22 00:04:23;;;;;;;13.07;11.67;;;8.10;99.90;;;;;;5015504;28;20465;-69
2022/01/22 00:06:51;;;;;;;12.17;10.87;;;8.10;99.90;;;;;;5031998;28;20828;-69
2022/01/22 00:09:17;;;;;;;12.70;11.20;;;8.20;99.90;;;;;;5014824;28;20415;-68
2022/01/22 00:11:53;;;;;;;12.33;11.17;;;8.10;99.90;;;;;;5032224;28;20424;-69
2022/01/22 00:14:25;;;;;;;12.87;11.67;;;8.10;99.90;;;;;;5033090;28;20420;-69
2022/01/22 00:16:55;;;;;;;14.50;13.07;;;8.10;99.90;;;;;;5032162;28;20415;-69
2022/01/22 00:19:21;;;;;;;15.80;14.13;;;8.10;99.90;;;;;;5032687;28;20751;-69
2022/01/22 00:21:48;;;;;;;14.23;12.83;;;8.10;99.90;;;;;;5031695;28;20464;-69
2022/01/22 00:24:14;;;;;;;13.33;12.00;;;8.00;99.90;;;;;;5014791;28;20513;-68
2022/01/22 00:26:41;;;;;;;17.23;13.40;;;8.10;99.90;;;;;;5031953;28;20409;-70
2022/01/22 00:29:07;;;;;;;12.43;11.27;;;8.10;99.90;;;;;;5034282;28;20459;-69
2022/01/22 00:31:34;;;;;;;13.27;12.07;;;8.10;99.90;;;;;;5052022;28;20427;-81
2022/01/22 00:33:59;;;;;;;13.80;11.53;;;8.10;99.90;;;;;;5049774;28;20600;-69
2022/01/22 00:36:25;;;;;;;14.13;12.63;;;8.10;99.90;;;;;;5032948;28;20419;-69
2022/01/22 00:38:51;;;;;;;14.67;13.23;;;8.10;99.90;;;;;;5031558;28;20181;-69
2022/01/22 00:41:17;;;;;;;15.10;13.50;;;8.10;99.90;;;;;;5032230;28;20174;-69
2022/01/22 00:43:42;;;;;;;13.77;12.40;;;8.10;99.90;;;;;;5031654;28;20182;-69
2022/01/22 00:46:08;;;;;;;12.90;11.70;;;8.10;99.90;;;;;;5032262;28;20285;-69
2022/01/22 00:48:34;;;;;;;13.70;12.33;;;8.10;99.90;;;;;;5033230;28;20216;-80
2022/01/22 00:51:00;;;;;;;14.07;12.67;;;8.10;99.90;;;;;;5052109;28;20185;-68
2022/01/22 00:53:27;;;;;;;16.30;12.83;;;8.10;99.90;;;;;;5034167;28;20220;-71
2022/01/22 00:55:53;;;;;;;14.30;12.80;;;8.10;99.90;;;;;;5033559;28;20184;-71
2022/01/22 00:58:19;;;;;;;13.40;12.00;;;8.00;99.90;;;;;;5034100;28;20812;-69
2022/01/22 01:00:45;;;;;;;16.40;13.80;;;8.00;99.90;;;;;;5050866;28;20219;-69
2022/01/22 01:03:11;;;;;;;15.33;12.57;;;8.00;99.90;;;;;;5034095;28;20825;-69
2022/01/22 01:05:36;;;;;;;14.33;12.87;;;8.00;99.90;;;;;;5051544;28;20209;-79
2022/01/22 01:08:03;;;;;;;14.07;12.57;;;8.00;99.90;;;;;;5052284;28;20414;-69
2022/01/22 01:10:29;;;;;;;14.60;13.20;;;8.00;99.90;;;;;;5043032;28;20537;-69
2022/01/22 01:12:55;;;;;;;15.43;13.83;;;8.30;99.90;;;;;;5031249;28;20421;-69
2022/01/22 01:34:22;;;;;;;14.53;13.03;;;8.00;99.90;;;;;;5035780;28;20408;-69
2022/01/22 01:36:48;;;;;;;13.77;12.37;;;7.90;99.90;;;;;;5017510;28;20984;-69
2022/01/22 01:39:26;;;;;;;14.60;13.10;;;7.90;99.90;;;;;;5035738;28;20532;-68
2022/01/22 01:42:00;;;;;;;13.43;12.13;;;7.90;99.90;;;;;;5017537;28;20510;-69
2022/01/22 01:44:27;;;;;;;13.90;11.70;;;7.90;99.90;;;;;;5035772;28;20440;-69
2022/01/22 01:46:57;;;;;;;12.43;11.27;;;7.90;99.90;;;;;;5034780;28;20424;-69
2022/01/22 01:49:23;;;;;;;12.83;11.00;;;7.90;99.90;;;;;;5035817;28;20405;-69
2022/01/22 01:51:49;;;;;;;13.47;12.17;;;7.90;99.90;;;;;;5017210;28;20421;-69
2022/01/22 01:59:45;;;;;;;13.07;11.67;;;7.90;99.90;;;;;;5034699;28;20404;-69
2022/01/22 02:02:12;;;;;;;13.47;12.17;;;7.90;99.90;;;;;;5017810;28;20913;-69
2022/01/22 02:04:38;;;;;;;14.80;12.47;;;7.80;99.90;;;;;;5034760;28;20456;-80
2022/01/22 02:07:04;;;;;;;12.43;11.20;;;7.90;99.90;;;;;;5017874;28;20908;-69
2022/01/22 02:09:32;;;;;;;13.47;12.03;;;7.80;99.90;;;;;;5032250;28;20822;-69
2022/01/22 02:12:07;;;;;;;14.27;12.20;;;7.90;99.90;;;;;;5053899;28;20500;-69
2022/01/22 02:25:28;;;;;;;13.90;11.40;;;7.80;99.90;;;;;;5055022;28;20453;-69
2022/01/22 02:27:54;;;;;;;14.60;11.10;;;7.90;99.90;;;;;;5035763;28;20893;-69
2022/01/22 02:30:24;;;;;;;12.17;10.90;;;7.90;99.90;;;;;;5043198;28;20415;-69
2022/01/22 02:35:36;;;;;;;11.67;10.60;;;7.90;99.90;;;;;;5035082;28;20495;-68
2022/01/22 02:38:12;;;;;;;11.93;10.73;;;7.90;99.90;;;;;;5034094;28;20402;-69
2022/01/22 02:40:56;;;;;;;12.13;10.93;;;7.90;99.90;;;;;;5034551;28;20401;-81
2022/01/22 02:43:22;;;;;;;12.13;10.93;;;7.90;99.90;;;;;;5035084;28;20428;-69
2022/01/22 02:45:49;;;;;;;14.07;12.63;;;7.90;99.90;;;;;;5016608;28;20460;-69
2022/01/22 02:48:15;;;;;;;11.80;10.60;;;7.90;99.90;;;;;;5016995;28;20761;-68
2022/01/22 02:50:41;;;;;;;13.03;11.67;;;8.00;99.90;;;;;;5019308;28;20442;-80
2022/01/22 02:53:10;;;;;;;13.43;11.80;;;7.90;99.90;;;;;;5036463;28;20394;-69
2022/01/22 02:55:36;;;;;;;15.23;13.70;;;7.90;99.90;;;;;;5036746;28;20450;-69
2022/01/22 02:58:03;;;;;;;13.97;12.43;;;7.90;99.90;;;;;;5031318;28;21013;-68
2022/01/22 03:00:29;;;;;;;15.10;12.70;;;7.90;99.90;;;;;;5034339;28;20424;-68
2022/01/22 03:02:55;;;;;;;13.57;12.17;;;7.90;99.90;;;;;;5015879;28;20765;-69
2022/01/22 03:05:21;;;;;;;13.60;12.20;;;7.80;99.90;;;;;;5034341;28;20448;-69
2022/01/22 03:07:53;;;;;;;14.67;12.23;;;7.80;99.90;;;;;;5016082;28;20978;-69
2022/01/22 03:10:23;;;;;;;14.03;12.23;;;7.80;99.90;;;;;;5016861;28;20618;-69
2022/01/22 03:18:10;;;;;;;13.23;11.83;;;7.80;99.90;;;;;;5033417;28;20950;-68
2022/01/22 03:20:49;;;;;;;13.70;12.00;;;7.80;99.90;;;;;;5033560;28;20903;-69
2022/01/22 03:29:29;;;;;;;13.77;11.67;;;7.90;99.90;;;;;;5035072;28;20498;-79
2022/01/22 03:31:38;;;;;;;14.63;11.80;;;7.90;99.90;;;;;;5030751;28;20424;-69
2022/01/22 03:34:04;;;;;;;15.87;11.90;;;7.90;99.90;;;;;;5033067;28;20487;-69
2022/01/22 03:36:33;;;;;;;14.80;12.73;;;7.90;99.90;;;;;;5016135;28;20405;-69
2022/01/22 03:39:00;;;;;;;14.00;12.37;;;7.90;99.90;;;;;;5033042;28;20489;-69
2022/01/22 03:41:26;;;;;;;15.10;13.50;;;7.90;99.90;;;;;;5033516;28;20416;-69
2022/01/22 03:43:53;;;;;;;15.00;12.70;;;7.80;99.90;;;;;;5032154;28;20416;-68
2022/01/22 03:46:19;;;;;;;13.40;10.83;;;7.90;99.90;;;;;;5033557;28;20958;-69
2022/01/22 03:48:45;;;;;;;12.83;11.43;;;8.00;99.90;;;;;;5039678;28;20406;-80
2022/01/22 03:51:11;;;;;;;13.20;11.80;;;7.90;99.90;;;;;;5052993;28;20789;-68
2022/01/22 03:53:37;;;;;;;14.20;12.10;;;7.90;99.90;;;;;;5053388;28;20535;-69
2022/01/22 03:56:05;;;;;;;13.47;11.80;;;7.90;99.90;;;;;;5052453;28;20422;-69
2022/01/22 03:58:33;;;;;;;13.17;11.80;;;7.90;99.90;;;;;;5035395;28;20553;-69
2022/01/22 04:03:43;;;;;;;14.73;12.63;;;7.90;99.90;;;;;;5052985;28;20910;-69
2022/01/22 04:08:56;;;;;;;13.53;12.13;;;7.90;99.90;;;;;;5032051;28;20404;-69
2022/01/22 04:11:26;;;;;;;13.87;11.70;;;7.90;99.90;;;;;;5033029;28;20395;-69
2022/01/22 04:13:58;;;;;;;14.87;12.80;;;7.90;99.90;;;;;;5014482;28;20434;-69
2022/01/22 04:16:23;;;;;;;14.43;12.70;;;7.90;99.90;;;;;;5032844;28;20892;-69
2022/01/22 04:27:14;;;;;;;16.73;13.17;;;8.00;99.90;;;;;;5031745;28;20482;-69
2022/01/22 04:29:40;;;;;;;16.07;14.10;;;8.00;99.90;;;;;;5032574;28;20502;-70
2022/01/22 04:32:06;;;;;;;15.17;13.17;;;8.10;99.90;;;;;;5031665;28;20413;-69
2022/01/22 04:34:33;;;;;;;16.50;14.40;;;8.10;99.90;;;;;;5032819;28;20428;-69
2022/01/22 04:36:59;;;;;;;16.50;13.93;;;8.10;99.90;;;;;;5031685;28;20499;-69
2022/01/22 04:39:26;;;;;;;16.37;13.77;;;8.10;99.90;;;;;;5032572;28;20425;-69
2022/01/22 04:41:55;;;;;;;16.60;14.90;;;8.10;99.90;;;;;;5031751;28;20465;-69
2022/01/22 04:44:24;;;;;;;16.00;13.63;;;8.10;99.90;;;;;;5032255;28;20783;-69
2022/01/22 04:47:01;;;;;;;17.70;13.40;;;8.10;99.90;;;;;;5031596;28;20430;-80
2022/01/22 04:54:59;;;;;;;15.10;12.93;;;8.20;99.90;;;;;;5030537;28;20430;-69
2022/01/22 04:57:30;;;;;;;14.60;13.10;;;8.10;99.90;;;;;;5032436;28;20466;-69
2022/01/22 04:59:56;;;;;;;14.43;12.63;;;8.10;99.90;;;;;;5014135;28;20492;-69
2022/01/22 05:02:22;;;;;;;14.50;11.93;;;8.10;99.90;;;;;;5032246;28;20927;-69
2022/01/22 05:04:49;;;;;;;14.40;12.50;;;8.10;99.90;;;;;;5031810;28;20468;-82
2022/01/22 05:07:15;;;;;;;16.67;11.93;;;8.10;99.90;;;;;;5014337;28;20420;-68
2022/01/22 05:09:40;;;;;;;13.93;12.37;;;8.10;99.90;;;;;;5032013;28;20942;-69
2022/01/22 05:12:07;;;;;;;16.50;14.90;;;8.10;99.90;;;;;;5031323;28;20346;-69
2022/01/22 05:14:33;;;;;;;16.87;12.90;;;8.10;99.90;;;;;;5015012;28;20192;-69
2022/01/22 05:17:02;;;;;;;14.93;13.33;;;8.10;99.90;;;;;;5031142;28;20813;-68
2022/01/22 05:19:43;;;;;;;14.87;12.10;;;8.10;99.90;;;;;;5014278;28;20394;-69
2022/01/22 05:24:47;;;;;;;14.70;12.23;;;8.20;99.90;;;;;;5031680;28;20851;-69
2022/01/22 05:37:15;;;;;;;16.60;13.50;;;8.30;99.90;;;;;;5031817;28;20399;-68
2022/01/22 05:39:41;;;;;;;14.90;12.67;;;8.30;99.90;;;;;;5031635;28;20512;-68
2022/01/22 05:42:09;;;;;;;16.33;13.10;;;8.30;99.90;;;;;;5030929;28;20188;-69
2022/01/22 05:44:36;;;;;;;17.07;15.37;;;8.20;99.90;;;;;;5014294;28;20460;-69
2022/01/22 05:47:05;;;;;;;15.90;13.40;;;8.20;99.90;;;;;;5031153;28;20512;-69
2022/01/22 05:49:35;;;;;;;15.87;14.17;;;8.30;99.90;;;;;;5043639;28;20452;-69
2022/01/22 05:52:03;;;;;;;14.30;12.53;;;8.30;99.90;;;;;;5051226;28;20463;-69
2022/01/22 05:59:43;;;;;;;16.47;12.80;;;8.30;99.90;;;;;;5051520;28;20190;-69
2022/01/22 06:02:15;;;;;;;17.80;12.77;;;8.40;99.90;;;;;;5016634;28;20451;-69
2022/01/22 06:04:41;;;;;;;16.60;13.10;;;8.40;99.90;;;;;;5034028;28;20451;-69
2022/01/22 06:07:08;;;;;;;15.13;13.30;;;8.50;99.90;;;;;;5035732;28;20765;-69
2022/01/22 06:09:38;;;;;;;13.77;12.20;;;8.50;99.90;;;;;;5055042;28;20419;-69
2022/01/22 06:12:16;;;;;;;14.03;12.47;;;8.50;99.90;;;;;;5036049;28;20424;-69
2022/01/22 06:14:42;;;;;;;14.00;12.20;;;8.50;99.90;;;;;;5035118;28;20412;-69
2022/01/22 06:17:08;;;;;;;15.33;12.27;;;8.50;99.90;;;;;;5034393;28;20923;-69
2022/01/22 06:19:34;;;;;;;15.40;12.90;;;8.50;99.90;;;;;;5035106;28;20417;-68
2022/01/22 06:21:59;;;;;;;13.40;12.00;;;8.50;99.90;;;;;;5034267;28;20221;-69
2022/01/22 06:24:25;;;;;;;14.47;12.27;;;8.50;99.90;;;;;;5035062;28;20551;-69
2022/01/22 06:26:51;;;;;;;15.50;12.90;;;8.60;99.90;;;;;;5017155;28;20194;-80
2022/01/22 06:29:18;;;;;;;14.70;13.30;;;8.60;99.90;;;;;;5016562;28;20179;-68
2022/01/22 06:31:44;;;;;;;13.00;11.60;;;8.70;99.90;;;;;;5036273;28;20429;-69
2022/01/22 06:34:10;;;;;;;13.40;11.90;;;8.70;99.90;;;;;;5034158;28;20751;-69
2022/01/22 06:36:35;;;;;;;13.67;11.80;;;8.70;99.90;;;;;;5034583;28;20253;-69
2022/01/22 06:39:14;;;;;;;14.67;12.83;;;8.70;99.90;;;;;;5016325;28;20951;-69
2022/01/22 06:41:44;;;;;;;12.90;10.90;;;8.70;99.90;;;;;;5035555;28;20418;-69
2022/01/22 06:44:16;;;;;;;13.97;11.70;;;8.70;99.90;;;;;;5033914;28;20410;-69
2022/01/22 06:46:43;;;;;;;14.57;10.57;;;8.70;99.90;;;;;;5017394;28;20436;-69
2022/01/22 06:49:09;;;;;;;13.13;10.17;;;8.80;99.90;;;;;;5033530;28;20420;-69
2022/01/22 06:51:35;;;;;;;14.43;12.03;;;8.80;99.90;;;;;;5034013;28;20830;-68
2022/01/22 06:54:03;;;;;;;15.43;13.40;;;8.70;99.90;;;;;;5033709;28;20420;-69
2022/01/22 06:56:30;;;;;;;13.90;10.90;;;8.70;99.90;;;;;;5034182;28;20429;-69
2022/01/22 06:58:57;;;;;;;16.93;13.90;;;8.70;99.90;;;;;;5033608;28;20417;-81
2022/01/22 07:01:24;;;;;;;15.47;11.87;;;8.70;99.90;;;;;;5039545;28;20435;-69
2022/01/22 07:03:50;;;;;;;14.87;13.37;;;8.70;99.90;;;;;;5047828;28;20453;-69
2022/01/22 07:06:16;;;;;;;15.90;14.20;;;8.70;99.90;;;;;;5044386;28;20495;-69
2022/01/22 07:08:42;;;;;;;15.67;12.17;;;8.80;99.90;;;;;;5039138;28;20217;-69
2022/01/22 07:11:08;;;;;;;16.50;12.63;;;8.70;99.90;;;;;;5037515;28;20178;-69
2022/01/22 07:13:34;;;;;;;16.40;12.47;;;8.70;99.90;;;;;;5034196;28;20536;-69
2022/01/22 07:16:00;;;;;;;15.00;10.97;;;8.70;99.90;;;;;;5033876;28;20421;-70
2022/01/22 07:18:28;;;;;;;18.87;14.20;;;8.70;99.90;;;;;;5026205;28;20507;-68
2022/01/22 07:20:54;;;;;;;18.47;15.40;;;8.80;99.90;;;;;;5040734;28;20453;-83
2022/01/22 07:23:52;;;;;;;17.27;13.33;;;8.80;99.90;;;;;;5015809;28;20444;-69
2022/01/22 07:26:07;;;;;;;17.73;11.60;;;8.70;99.90;;;;;;5020687;28;20460;-70
2022/01/22 07:28:33;;;;;;;14.80;11.10;;;8.80;99.90;;;;;;5045773;28;20421;-70
2022/01/22 07:31:00;;;;;;;16.40;12.10;;;8.80;99.90;;;;;;5042091;28;20508;-73
2022/01/22 07:33:27;;;;;;;14.87;12.80;;;8.80;99.90;;;;;;5021929;28;20432;-69
2022/01/22 07:35:53;;;;;;;14.33;12.53;;;8.80;99.90;;;;;;5020531;28;20441;-73
2022/01/22 07:38:19;;;;;;;16.13;14.07;;;8.80;99.90;;;;;;5026800;28;20431;-70
2022/01/22 07:40:45;;;;;;;13.73;11.90;;;8.80;99.90;;;;;;5041313;28;20498;-70
2022/01/22 07:43:11;;;;;;;13.87;11.80;;;8.80;99.90;;;;;;5044734;28;20944;-70
2022/01/22 07:45:37;;;;;;;12.17;10.20;;;8.80;99.90;;;;;;5041766;28;20452;-71
2022/01/22 07:48:03;;;;;;;12.50;9.40;;;8.80;99.90;;;;;;5038540;28;20547;-71
2022/01/22 07:50:29;;;;;;;11.10;9.40;;;8.80;99.90;;;;;;5044261;28;20567;-71
2022/01/22 07:52:57;;;;;;;13.33;11.30;;;8.70;99.90;;;;;;5037263;28;20433;-69
2022/01/22 07:55:23;;;;;;;12.40;10.47;;;8.70;99.90;;;;;;5033652;28;20229;-69
2022/01/22 07:57:49;;;;;;;12.63;11.00;;;8.80;99.90;;;;;;5033748;28;20424;-68
2022/01/22 08:00:16;;;;;;;11.30;10.20;;;8.70;99.90;;;;;;5033363;28;20413;-69
2022/01/22 08:02:45;;;;;;;12.67;10.10;;;8.70;99.90;;;;;;5016135;28;20448;-69
2022/01/22 08:05:11;;;;;;;11.40;10.10;;;8.80;99.90;;;;;;5032740;28;20945;-69
2022/01/22 08:07:39;;;;;;;11.93;10.73;;;8.70;99.90;;;;;;5038202;28;20424;-69
2022/01/22 08:10:08;;;;;;;11.77;10.37;;;8.70;99.90;;;;;;5035419;28;20470;-69
2022/01/22 08:12:36;;;;;;;12.10;10.80;;;8.70;99.90;;;;;;5033973;28;20424;-69
2022/01/22 08:15:02;;;;;;;11.10;9.77;;;8.70;99.90;;;;;;5044530;28;20934;-75
2022/01/22 08:17:27;;;;;;;12.73;10.73;;;8.70;99.90;;;;;;5045477;28;21001;-70
2022/01/22 08:19:53;;;;;;;12.63;10.73;;;8.70;99.90;;;;;;5032788;28;20465;-71
2022/01/22 08:22:19;;;;;;;12.60;9.77;;;8.70;99.90;;;;;;5032798;28;20682;-70
2022/01/22 08:24:45;;;;;;;12.20;10.33;;;8.20;99.90;;;;;;5033091;28;20473;-69
2022/01/22 08:27:34;;;;;;;13.43;10.93;;;8.70;99.90;;;;;;5014810;28;20194;-70
2022/01/22 08:30:00;;;;;;;13.13;11.30;;;8.70;99.90;;;;;;5014685;28;20416;-70
2022/01/22 08:37:37;;;;;;;14.00;12.50;;;9.10;99.90;;;;;;5044356;28;20178;-72
2022/01/22 08:40:08;;;;;;;14.07;12.57;;;9.80;99.90;;;;;;5052267;28;20427;-72
2022/01/22 08:42:34;;;;;;;12.00;10.90;;;10.30;99.90;;;;;;5052780;28;20455;-72
2022/01/22 08:44:59;;;;;;;12.83;11.50;;;10.60;99.90;;;;;;5051866;28;20871;-74
2022/01/22 08:47:25;;;;;;;15.10;11.60;;;11.10;99.90;;;;;;5034915;28;20218;-72
2022/01/22 08:49:51;;;;;;;12.60;11.30;;;11.40;99.90;;;;;;5052661;28;20260;-72
2022/01/22 08:52:22;;;;;;;13.10;11.70;;;11.70;99.90;;;;;;5052113;28;20474;-72
2022/01/22 08:54:48;;;;;;;12.97;11.63;;;12.00;99.90;;;;;;5034957;28;20403;-73
2022/01/22 08:57:14;;;;;;;12.10;10.90;;;12.20;99.90;;;;;;5039765;28;20428;-72
2022/01/22 08:59:39;;;;;;;12.23;11.03;;;12.50;99.90;;;;;;5032652;28;20404;-72
2022/01/22 09:02:06;;;;;;;14.30;12.43;;;12.50;99.90;;;;;;5031929;28;20421;-72
2022/01/22 09:04:33;;;;;;;13.37;11.80;;;12.60;99.90;;;;;;5032385;28;22084;-72
2022/01/22 09:06:59;;;;;;;14.77;12.17;;;12.80;99.90;;;;;;5032654;28;20475;-72
2022/01/22 09:09:26;;;;;;;13.00;11.63;;;12.90;99.90;;;;;;5032016;28;20413;-73
2022/01/22 09:11:52;;;;;;;12.23;10.97;;;13.00;99.90;;;;;;5032201;28;20964;-72
2022/01/22 09:14:18;;;;;;;13.27;11.97;;;13.10;99.90;;;;;;5031672;28;20415;-72
2022/01/22 09:16:46;;;;;;;14.57;12.53;;;13.10;99.90;;;;;;5032740;28;20434;-73
2022/01/22 09:19:13;;;;;;;13.90;12.20;;;13.20;99.90;;;;;;5031890;28;20413;-73
2022/01/22 09:21:42;;;;;;;12.37;11.27;;;13.30;99.90;;;;;;5042101;28;20461;-72
2022/01/22 09:24:08;;;;;;;16.23;11.10;;;13.30;99.90;;;;;;5033557;28;20494;-73
2022/01/22 09:26:35;;;;;;;11.90;10.70;;;13.40;99.90;;;;;;5033494;28;20458;-71
2022/01/22 09:29:01;;;;;;;12.40;11.20;;;13.40;98.70;;;;;;5048956;28;20435;-69
2022/01/22 09:31:28;;;;;;;11.87;10.67;;;13.10;98.00;;;;;;5030996;28;20429;-77
2022/01/22 09:33:56;;;;;;;10.07;9.10;;;12.80;98.10;;;;;;5042614;28;20475;-69
2022/01/22 09:36:23;;;;;;;12.60;10.80;;;12.40;98.90;;;;;;5044162;28;20619;-69
2022/01/22 09:38:49;;;;;;;12.90;11.03;;;12.10;99.70;;;;;;5042642;28;20925;-72
2022/01/22 09:41:16;;;;;;;14.27;10.30;;;11.80;99.90;;;;;;5047403;28;20542;-68
2022/01/22 09:43:41;;;;;;;13.50;11.50;;;11.60;99.90;;;;;;5041414;28;20431;-69
2022/01/22 09:46:08;;;;;;;13.87;10.70;;;11.20;99.90;;;;;;5037895;28;20843;-69
2022/01/22 09:48:33;;;;;;;15.40;11.40;;;10.90;99.90;;;;;;5048746;28;20184;-69
2022/01/22 09:50:59;;;;;;;12.03;10.50;;;10.70;99.90;;;;;;5038356;28;20478;-69
2022/01/22 09:53:25;;;;;;;16.40;12.60;;;10.70;99.90;;;;;;5053484;28;20191;-69
2022/01/22 09:55:51;;;;;;;15.00;12.50;;;10.40;99.90;;;;;;5047483;28;20252;-69
2022/01/22 09:58:17;;;;;;;18.90;12.43;;;10.20;99.90;;;;;;5042605;28;20683;-69
2022/01/22 10:00:43;;;;;;;18.93;13.70;;;10.10;99.90;;;;;;5048825;28;20628;-76
2022/01/22 10:03:18;;;;;;;17.50;14.07;;;10.00;99.90;;;;;;5039451;28;20433;-69
2022/01/22 10:05:44;;;;;;;18.30;14.17;;;9.90;99.90;;;;;;5055443;28;20464;-69
2022/01/22 10:08:19;;;;;;;20.43;14.27;;;9.80;99.90;;;;;;5018443;28;20429;-69
2022/01/22 10:10:46;;;;;;;18.93;14.00;;;9.70;99.90;;;;;;5018164;28;20413;-69
2022/01/22 10:13:12;;;;;;;19.20;13.90;;;9.70;99.90;;;;;;5041018;28;20437;-69
2022/01/22 10:15:39;;;;;;;18.83;13.83;;;9.60;99.90;;;;;;5038457;28;20422;-69
2022/01/22 10:18:06;;;;;;;16.30;13.10;;;9.50;99.90;;;;;;5042661;28;20421;-79
2022/01/22 10:20:38;;;;;;;18.30;13.70;;;9.50;99.90;;;;;;5017014;28;20943;-69
2022/01/22 10:23:20;;;;;;;17.60;13.90;;;9.40;99.90;;;;;;5038791;28;20424;-81
2022/01/22 10:25:52;;;;;;;17.87;13.70;;;9.40;99.90;;;;;;5034528;28;20494;-69
2022/01/22 10:28:22;;;;;;;18.27;13.80;;;9.30;99.90;;;;;;5049326;28;20422;-70
2022/01/22 10:30:52;;;;;;;16.60;13.03;;;9.30;99.90;;;;;;5047324;28;20923;-68
2022/01/22 10:35:46;;;;;;;17.53;14.07;;;9.20;99.90;;;;;;5041899;28;20793;-68
2022/01/22 10:38:12;;;;;;;17.77;13.20;;;9.10;99.90;;;;;;5031514;28;21006;-69
2022/01/22 10:40:40;;;;;;;17.83;13.70;;;9.10;99.90;;;;;;5045857;28;20456;-68
2022/01/22 10:43:32;;;;;;;16.80;13.27;;;9.10;99.90;;;;;;5017057;28;20984;-69
2022/01/22 10:48:44;;;;;;;16.77;13.60;;;9.10;99.90;;;;;;5043765;28;20894;-70
2022/01/22 10:51:12;;;;;;;17.67;13.23;;;9.00;99.90;;;;;;5054141;28;20412;-71
2022/01/22 10:53:38;;;;;;;13.20;11.53;;;9.00;99.90;;;;;;5051599;28;20479;-70
2022/01/22 10:56:06;;;;;;;15.17;12.13;;;9.00;99.90;;;;;;5035190;28;20767;-69
2022/01/22 10:58:33;;;;;;;14.03;12.33;;;9.00;99.90;;;;;;5037460;28;20177;-69
2022/01/22 11:01:01;;;;;;;17.27;12.57;;;9.10;99.90;;;;;;5039258;28;20416;-69
2022/01/22 11:03:28;;;;;;;17.00;12.80;;;9.00;99.90;;;;;;5054101;28;20440;-72
2022/01/22 11:05:56;;;;;;;19.20;14.10;;;9.10;99.90;;;;;;5051265;28;20469;-69
2022/01/22 11:08:21;;;;;;;19.77;12.80;;;9.00;99.90;;;;;;5018529;28;20512;-75
2022/01/22 11:10:48;;;;;;;14.63;12.03;;;9.00;99.90;;;;;;5041944;28;20520;-68
2022/01/22 11:13:14;;;;;;;17.80;14.03;;;9.00;99.90;;;;;;5015805;28;20417;-69
2022/01/22 11:15:41;;;;;;;18.80;14.00;;;9.00;99.90;;;;;;5034010;28;20453;-69
2022/01/22 11:18:07;;;;;;;17.30;13.10;;;9.00;99.90;;;;;;5036751;28;20175;-79
2022/01/22 11:20:35;;;;;;;17.77;13.60;;;9.00;99.90;;;;;;5017723;28;20482;-71
2022/01/22 11:23:02;;;;;;;16.63;13.47;;;8.90;99.90;;;;;;5053891;28;20519;-69
2022/01/22 11:25:28;;;;;;;16.17;12.13;;;9.00;99.90;;;;;;5034861;28;21103;-69
2022/01/22 11:27:54;;;;;;;16.33;12.93;;;9.10;99.90;;;;;;5054143;28;20896;-69
2022/01/22 11:30:25;;;;;;;18.03;13.33;;;9.10;99.90;;;;;;5053708;28;20458;-69
2022/01/22 11:32:59;;;;;;;16.87;14.10;;;9.10;99.90;;;;;;5036506;28;20412;-69
2022/01/22 11:35:32;;;;;;;19.50;13.63;;;9.10;99.90;;;;;;5053298;28;20421;-69
2022/01/22 11:38:07;;;;;;;17.10;12.53;;;9.10;99.90;;;;;;5054190;28;20435;-69
2022/01/22 11:40:34;;;;;;;18.00;13.93;;;9.10;99.90;;;;;;5053881;28;20392;-69
2022/01/22 11:43:07;;;;;;;17.77;13.03;;;9.10;99.90;;;;;;5053815;28;20485;-68
2022/01/22 11:45:35;;;;;;;17.87;13.80;;;9.20;99.90;;;;;;5034787;28;20554;-68
2022/01/22 11:48:13;;;;;;;17.53;13.70;;;9.20;99.90;;;;;;5053441;28;20416;-68
2022/01/22 11:50:41;;;;;;;20.67;14.10;;;9.20;99.90;;;;;;5035796;28;20927;-68
2022/01/22 11:53:29;;;;;;;19.27;14.10;;;9.10;99.90;;;;;;5054031;28;20540;-68
2022/01/22 11:56:07;;;;;;;15.83;11.63;;;9.10;99.90;;;;;;5053639;28;20420;-69
2022/01/22 11:58:56;;;;;;;17.20;12.60;;;9.20;99.90;;;;;;5053226;28;20814;-68
2022/01/22 12:01:37;;;;;;;17.07;13.40;;;9.10;99.90;;;;;;5037828;28;20431;-68
2022/01/22 12:04:05;;;;;;;17.37;13.73;;;9.20;99.90;;;;;;5053132;28;20444;-68
2022/01/22 12:06:30;;;;;;;58.33;39.47;;;9.10;99.90;;;;;;5035245;28;20467;-68
2022/01/22 12:09:25;;;;;;;407.40;246.37;;;9.20;99.90;;;;;;5053493;28;20888;-68
2022/01/22 12:14:49;;;;;;;14.13;12.30;;;9.30;99.90;;;;;;5053329;28;20842;-69
2022/01/22 12:17:26;;;;;;;13.53;11.70;;;9.30;99.90;;;;;;5052345;28;20507;-68
2022/01/22 12:22:33;;;;;;;14.77;12.30;;;9.30;99.90;;;;;;5052148;28;20622;-68
2022/01/22 12:25:14;;;;;;;17.10;12.57;;;9.30;99.90;;;;;;5053235;28;20458;-68
2022/01/22 12:27:51;;;;;;;14.80;11.33;;;9.30;99.90;;;;;;5053009;28;20761;-69
2022/01/22 12:30:44;;;;;;;11.87;10.60;;;9.40;99.90;;;;;;5052229;28;20403;-69
2022/01/22 12:33:33;;;;;;;12.10;10.60;;;9.30;99.90;;;;;;5052729;28;20396;-69
2022/01/22 12:36:00;;;;;;;13.60;10.87;;;9.40;99.90;;;;;;5017614;28;20489;-68
2022/01/22 12:38:46;;;;;;;11.63;10.40;;;9.30;99.90;;;;;;5052488;28;20429;-68
2022/01/22 12:44:14;;;;;;;14.07;11.17;;;9.30;99.90;;;;;;5052780;28;20393;-68
2022/01/22 12:46:40;;;;;;;10.37;9.10;;;9.30;99.90;;;;;;5024922;28;20448;-69
2022/01/22 12:49:08;;;;;;;11.57;10.47;;;9.30;99.90;;;;;;5052185;28;20507;-68
2022/01/22 12:51:35;;;;;;;10.43;9.53;;;9.00;99.90;;;;;;5051721;28;20501;-68
2022/01/22 12:54:02;;;;;;;11.10;9.37;;;9.30;99.90;;;;;;5052061;28;20979;-68
2022/01/22 12:59:02;;;;;;;678.23;423.20;;;9.20;99.90;;;;;;5035335;28;20480;-67
2022/01/22 13:01:31;;;;;;;29.63;21.00;;;9.20;99.90;;;;;;5017248;28;20556;-72
2022/01/22 13:03:59;;;;;;;10.30;9.30;;;9.30;99.90;;;;;;5032030;28;20507;-68
2022/01/22 13:06:35;;;;;;;8.57;7.87;;;9.30;99.90;;;;;;5031479;28;20940;-68
2022/01/22 13:09:03;;;;;;;8.27;7.63;;;9.30;99.90;;;;;;5015058;28;20479;-68
2022/01/22 13:11:31;;;;;;;8.80;8.00;;;9.30;99.90;;;;;;5014509;28;20520;-69
2022/01/22 13:13:58;;;;;;;8.77;7.97;;;9.30;99.90;;;;;;5032678;28;20413;-68
2022/01/22 13:16:24;;;;;;;8.20;7.40;;;9.30;99.90;;;;;;5032724;28;20432;-69
2022/01/22 13:19:00;;;;;;;8.33;7.43;;;9.30;99.90;;;;;;5018933;28;20471;-68
2022/01/22 13:21:29;;;;;;;7.30;6.70;;;9.30;99.90;;;;;;5032049;28;20471;-68
2022/01/22 13:23:58;;;;;;;7.73;7.03;;;9.30;99.90;;;;;;5056565;28;20416;-69
2022/01/22 13:26:48;;;;;;;8.00;7.27;;;9.30;99.90;;;;;;5055836;28;20448;-68
2022/01/22 13:29:26;;;;;;;7.50;6.90;;;9.30;99.90;;;;;;5056737;28;20420;-68
2022/01/22 13:32:00;;;;;;;7.40;6.80;;;9.30;99.90;;;;;;5056296;28;20897;-68
2022/01/22 13:34:39;;;;;;;9.57;8.60;;;9.30;99.90;;;;;;5056061;28;20460;-69
2022/01/22 13:48:32;;;;;;;7.80;7.07;;;9.20;99.90;;;;;;5055783;28;20480;-69
2022/01/22 13:51:00;;;;;;;8.10;7.40;;;9.40;99.90;;;;;;5056131;28;20514;-69
2022/01/22 13:53:27;;;;;;;7.70;7.10;;;9.10;99.90;;;;;;5055586;28;20416;-68
2022/01/22 13:56:12;;;;;;;14.60;13.10;;;9.10;99.90;;;;;;5056189;28;20544;-69
2022/01/22 13:58:39;;;;;;;10.43;9.53;;;9.20;99.90;;;;;;5056205;28;20821;-68
2022/01/22 14:01:18;;;;;;;8.40;7.60;;;9.20;99.90;;;;;;5054669;28;20404;-68
2022/01/22 14:04:03;;;;;;;8.23;7.43;;;9.20;99.90;;;;;;5054877;28;20396;-68
2022/01/22 14:06:33;;;;;;;6.57;5.93;;;9.20;99.90;;;;;;5055527;28;20498;-68
2022/01/22 14:09:15;;;;;;;7.93;7.07;;;9.30;99.90;;;;;;5055699;28;20491;-69
2022/01/22 14:12:06;;;;;;;7.30;6.60;;;9.20;99.90;;;;;;5055569;28;20443;-69
2022/01/22 14:14:58;;;;;;;7.00;6.33;;;9.20;99.90;;;;;;5060056;28;20415;-69
2022/01/22 14:17:29;;;;;;;7.90;7.20;;;9.20;99.90;;;;;;5074077;28;20455;-69
2022/01/22 14:20:04;;;;;;;7.90;6.80;;;9.20;99.90;;;;;;5074485;28;20427;-68
2022/01/22 14:22:55;;;;;;;15.33;13.83;;;9.20;99.90;;;;;;5057334;28;20502;-69
2022/01/22 14:25:21;;;;;;;20.77;18.60;;;9.30;99.90;;;;;;5054919;28;20540;-69
2022/01/22 14:28:07;;;;;;;18.83;16.80;;;9.30;99.90;;;;;;5054922;28;20416;-69
2022/01/22 14:30:41;;;;;;;18.23;16.43;;;9.20;99.90;;;;;;5054971;28;20427;-68
2022/01/22 14:33:09;;;;;;;13.43;11.90;;;9.30;99.90;;;;;;5055450;28;20423;-69
2022/01/22 14:35:36;;;;;;;10.20;9.20;;;9.20;99.90;;;;;;5054486;28;20424;-69
2022/01/22 14:38:47;;;;;;;12.57;11.53;;;9.20;99.90;;;;;;5054839;28;20911;-69
2022/01/22 14:44:30;;;;;;;7.23;6.63;;;8.70;99.90;;;;;;5048509;28;20405;-69
2022/01/22 14:46:57;;;;;;;5.80;5.30;;;9.20;99.90;;;;;;5034780;28;20728;-69
2022/01/22 14:49:30;;;;;;;5.97;5.47;;;9.20;99.90;;;;;;5033956;28;20417;-69
2022/01/22 14:51:57;;;;;;;7.30;6.70;;;9.20;99.90;;;;;;5034630;28;20475;-69